createdAt,value
2022-12-16T00:02:10.161Z,994.16
2022-12-16T00:07:10.047Z,994.20
2022-12-16T00:12:10.042Z,994.24
2022-12-16T00:17:09.949Z,994.19
2022-12-16T00:22:09.901Z,994.23
2022-12-16T00:27:09.834Z,994.09
2022-12-16T00:32:09.811Z,994.09
2022-12-16T00:37:09.710Z,994.20
2022-12-16T00:42:09.658Z,994.18
2022-12-16T00:47:09.592Z,994.21
2022-12-16T00:52:09.570Z,994.25
2022-12-16T00:57:09.501Z,994.21
2022-12-16T01:02:09.568Z,994.17
2022-12-16T01:07:09.383Z,994.18
2022-12-16T01:12:09.367Z,994.18
2022-12-16T01:17:09.269Z,994.29
2022-12-16T01:22:09.264Z,994.28
2022-12-16T01:27:09.173Z,994.37
2022-12-16T01:32:09.216Z,994.40
2022-12-16T01:37:09.135Z,994.42
2022-12-16T01:42:09.045Z,994.44
2022-12-16T01:47:09.068Z,994.51
2022-12-16T01:52:09.005Z,994.47
2022-12-16T01:57:08.875Z,994.48
2022-12-16T02:02:09.055Z,994.48
2022-12-16T02:07:08.762Z,994.52
2022-12-16T02:13:35.564Z,994.46
2022-12-16T02:18:20.018Z,994.52
2022-12-16T02:23:19.952Z,994.54
2022-12-16T03:47:30.420Z,994.94
2022-12-16T03:52:52.382Z,994.92
2022-12-16T03:57:30.346Z,994.93
2022-12-16T04:02:30.386Z,994.89
2022-12-16T05:15:59.939Z,995.55
2022-12-16T05:20:59.924Z,995.53
2022-12-16T05:25:59.844Z,995.57
2022-12-16T05:32:46.708Z,995.66
2022-12-16T05:37:11.180Z,995.63
2022-12-16T05:42:10.999Z,995.77
2022-12-16T05:47:11.075Z,995.79
2022-12-16T05:52:10.871Z,995.84
2022-12-16T05:57:10.809Z,995.89
2022-12-16T06:02:10.937Z,996.04
2022-12-16T06:07:10.717Z,996.13
2022-12-16T06:12:10.668Z,996.21
2022-12-16T06:17:10.638Z,996.26
2022-12-16T06:22:10.548Z,996.31
2022-12-16T06:27:13.914Z,996.36
2022-12-16T06:32:10.474Z,996.35
2022-12-16T06:37:10.438Z,996.51
2022-12-16T06:42:10.347Z,996.52
2022-12-16T06:47:10.365Z,996.56
2022-12-16T06:52:10.251Z,996.68
2022-12-16T06:57:11.099Z,996.70
2022-12-16T07:02:10.329Z,996.80
2022-12-16T07:07:10.144Z,996.88
2022-12-16T07:12:10.141Z,996.93
2022-12-16T07:17:15.235Z,996.96
2022-12-16T07:22:10.974Z,997.08
2022-12-16T07:27:09.906Z,997.29
2022-12-16T07:32:09.886Z,997.37
2022-12-16T07:37:09.820Z,997.36
2022-12-16T07:42:09.757Z,997.48
2022-12-16T07:47:09.675Z,997.57
2022-12-16T07:52:09.625Z,997.62
2022-12-16T07:57:09.603Z,997.63
2022-12-16T08:02:09.670Z,997.66
2022-12-16T08:07:09.481Z,997.75
2022-12-16T08:12:09.445Z,997.81
2022-12-16T08:17:09.423Z,997.91
2022-12-16T08:22:09.362Z,997.98
2022-12-16T08:27:09.348Z,997.99
2022-12-16T08:32:09.212Z,998.05
2022-12-16T08:37:09.205Z,998.09
2022-12-16T08:42:09.117Z,998.20
2022-12-16T08:47:09.063Z,998.19
2022-12-16T08:52:09.024Z,998.17
2022-12-16T08:57:08.984Z,998.24
2022-12-16T09:02:09.144Z,998.25
2022-12-16T09:07:08.878Z,998.32
2022-12-16T09:12:08.842Z,998.34
2022-12-16T09:17:08.876Z,998.37
2022-12-16T09:22:08.718Z,998.44
2022-12-16T09:27:08.698Z,998.51
2022-12-16T09:32:08.705Z,998.64
2022-12-16T09:37:08.575Z,998.61
2022-12-16T09:42:08.513Z,998.69
2022-12-16T09:47:08.828Z,998.62
2022-12-16T09:52:09.146Z,998.67
2022-12-16T09:57:08.360Z,998.70
2022-12-16T10:02:08.420Z,998.66
2022-12-16T10:07:08.224Z,998.74
2022-12-16T10:12:08.204Z,998.76
2022-12-16T10:17:08.161Z,998.77
2022-12-16T10:22:08.111Z,998.81
2022-12-16T10:27:08.030Z,998.77
2022-12-16T10:32:08.055Z,998.87
2022-12-16T10:37:12.353Z,998.82
2022-12-16T10:42:08.910Z,998.82
2022-12-16T10:47:07.851Z,998.85
2022-12-16T10:52:08.851Z,998.84
2022-12-16T10:57:07.735Z,998.88
2022-12-16T11:02:07.786Z,998.93
2022-12-16T11:07:07.643Z,998.86
2022-12-16T11:12:07.565Z,998.85
2022-12-16T11:17:16.367Z,998.93
2022-12-16T11:22:07.511Z,998.95
2022-12-16T11:27:07.418Z,998.96
2022-12-16T11:32:07.427Z,998.99
2022-12-16T11:37:10.409Z,999.04
2022-12-16T11:42:07.360Z,999.06
2022-12-16T11:47:07.190Z,999.10
2022-12-16T11:52:28.500Z,999.03
2022-12-16T11:57:08.193Z,999.06
2022-12-16T12:02:07.170Z,999.10
2022-12-16T12:07:07.128Z,999.05
2022-12-16T12:12:06.967Z,999.08
2022-12-16T12:17:06.883Z,999.06
2022-12-16T12:22:06.898Z,999.15
2022-12-16T12:27:06.831Z,999.11
2022-12-16T12:32:06.716Z,999.17
2022-12-16T12:37:06.721Z,999.22
2022-12-16T12:42:06.752Z,999.20
2022-12-16T12:47:06.641Z,999.20
2022-12-16T12:52:06.530Z,999.26
2022-12-16T12:57:06.485Z,999.28
2022-12-16T13:02:06.557Z,999.32
2022-12-16T13:07:06.413Z,999.36
2022-12-16T13:12:06.336Z,999.35
2022-12-16T13:17:06.247Z,999.34
2022-12-16T13:22:06.222Z,999.45
2022-12-16T13:27:06.243Z,999.48
2022-12-16T13:32:06.229Z,999.55
2022-12-16T13:37:06.109Z,999.62
2022-12-16T13:42:06.007Z,999.66
2022-12-16T13:47:06.022Z,999.72
2022-12-16T13:52:05.901Z,999.73
2022-12-16T13:57:05.870Z,999.85
2022-12-16T14:02:05.911Z,999.85
2022-12-16T14:07:05.734Z,999.89
2022-12-16T14:12:06.704Z,999.94
2022-12-16T14:17:05.852Z,999.98
2022-12-16T14:22:05.600Z,1000.09
2022-12-16T14:27:05.565Z,1000.19
2022-12-16T14:32:05.694Z,1000.29
2022-12-16T14:37:05.547Z,1000.32
2022-12-16T14:42:05.468Z,1000.31
2022-12-16T14:47:05.369Z,1000.38
2022-12-16T14:52:05.379Z,1000.40
2022-12-16T14:57:06.254Z,1000.59
2022-12-16T15:02:05.471Z,1000.56
2022-12-16T15:07:05.102Z,1000.66
2022-12-16T15:12:05.144Z,1000.73
2022-12-16T15:17:05.076Z,1000.83
2022-12-16T15:22:04.994Z,1000.92
2022-12-16T15:27:04.885Z,1000.98
2022-12-16T15:32:04.904Z,1001.06
2022-12-16T15:37:04.797Z,1001.12
2022-12-16T15:42:04.734Z,1001.24
2022-12-16T15:47:04.694Z,1001.26
2022-12-16T15:52:04.647Z,1001.33
2022-12-16T15:57:04.616Z,1001.39
2022-12-16T16:02:05.342Z,1001.44
2022-12-16T16:07:04.483Z,1001.50
2022-12-16T16:12:04.399Z,1001.64
2022-12-16T16:17:04.444Z,1001.72
2022-12-16T16:22:04.316Z,1001.79
2022-12-16T16:27:04.319Z,1001.96
2022-12-16T16:32:04.760Z,1002.05
2022-12-16T16:37:04.162Z,1002.00
2022-12-16T16:42:04.183Z,1002.16
2022-12-16T16:47:04.116Z,1002.21
2022-12-16T16:52:04.043Z,1002.28
2022-12-16T16:57:04.978Z,1002.21
2022-12-16T17:02:04.090Z,1002.29
2022-12-16T17:07:03.861Z,1002.39
2022-12-16T17:12:03.878Z,1002.41
2022-12-16T17:17:03.813Z,1002.45
2022-12-16T17:22:03.879Z,1002.53
2022-12-16T17:27:03.819Z,1002.58
2022-12-16T17:32:03.751Z,1002.67
2022-12-16T17:37:03.725Z,1002.74
2022-12-16T17:42:03.641Z,1002.86
2022-12-16T17:47:03.637Z,1002.92
2022-12-16T17:52:03.487Z,1003.01
2022-12-16T17:57:03.407Z,1003.10
2022-12-16T18:02:03.542Z,1003.16
2022-12-16T18:07:03.382Z,1003.23
2022-12-16T18:12:03.348Z,1003.28
2022-12-16T18:17:03.247Z,1003.35
2022-12-16T18:22:03.199Z,1003.37
2022-12-16T18:27:03.165Z,1003.40
2022-12-16T18:32:03.175Z,1003.45
2022-12-16T18:37:02.947Z,1003.48
2022-12-16T18:42:02.904Z,1003.55
2022-12-16T18:47:02.850Z,1003.60
2022-12-16T18:52:02.842Z,1003.60
2022-12-16T18:57:02.725Z,1003.62
2022-12-16T19:02:02.778Z,1003.65
2022-12-16T19:07:02.683Z,1003.64
2022-12-16T19:12:02.563Z,1003.70
2022-12-16T19:17:02.472Z,1003.75
2022-12-16T19:22:02.421Z,1003.81
2022-12-16T19:27:02.381Z,1003.81
2022-12-16T19:32:02.370Z,1003.88
2022-12-16T19:37:02.374Z,1003.93
2022-12-16T19:42:02.199Z,1003.95
2022-12-16T19:47:02.209Z,1004.03
2022-12-16T19:52:04.152Z,1004.04
2022-12-16T19:57:02.030Z,1004.08
2022-12-16T20:02:02.337Z,1004.20
2022-12-16T20:07:01.939Z,1004.22
2022-12-16T20:12:01.903Z,1004.27
2022-12-16T20:17:01.835Z,1004.29
2022-12-16T20:27:02.735Z,1004.46
2022-12-16T20:32:01.789Z,1004.39
2022-12-16T20:37:01.647Z,1004.51
2022-12-16T20:42:01.700Z,1004.52
2022-12-16T20:47:03.623Z,1004.62
2022-12-16T20:52:01.436Z,1004.63
2022-12-16T20:57:01.405Z,1004.65
2022-12-16T21:02:22.801Z,1004.77
2022-12-16T21:07:02.319Z,1004.80
2022-12-16T21:12:01.228Z,1004.92
2022-12-16T21:17:01.387Z,1004.95
2022-12-16T21:22:01.231Z,1004.96
2022-12-16T21:27:01.092Z,1004.99
2022-12-16T21:32:01.044Z,1005.21
2022-12-16T21:37:00.999Z,1005.27
2022-12-16T21:42:00.919Z,1005.32
2022-12-16T21:47:00.965Z,1005.39
2022-12-16T21:52:00.839Z,1005.54
2022-12-16T21:57:00.797Z,1005.60
2022-12-16T22:02:00.840Z,1005.65
2022-12-16T22:07:00.660Z,1005.52
2022-12-16T22:12:00.644Z,1005.64
2022-12-16T22:17:00.627Z,1005.70
2022-12-16T22:22:00.656Z,1005.67
2022-12-16T22:27:00.456Z,1005.75
2022-12-16T22:32:00.403Z,1005.79
2022-12-16T22:37:00.313Z,1005.84
2022-12-16T22:42:00.296Z,1005.89
2022-12-16T22:47:00.242Z,1005.95
2022-12-16T22:52:00.428Z,1006.00
2022-12-16T22:57:00.127Z,1005.97
2022-12-16T23:02:00.289Z,1006.00
2022-12-16T23:07:00.076Z,1005.99
2022-12-16T23:11:59.985Z,1006.13
2022-12-16T23:16:59.929Z,1006.13
2022-12-16T23:21:59.859Z,1006.12
2022-12-16T23:26:59.855Z,1006.13
2022-12-16T23:31:59.767Z,1006.24
2022-12-16T23:32:31.024Z,1004.42
2022-12-16T23:36:59.737Z,1006.24
2022-12-16T23:41:59.675Z,1006.28
2022-12-16T23:46:59.684Z,1006.26
2022-12-16T23:51:59.662Z,1006.27
2022-12-16T23:56:59.535Z,1006.29
